createdAt,value
2019-01-23T00:02:21.262Z,22.07
2019-01-23T00:05:02.833Z,23.07
2019-01-23T00:07:43.836Z,21.90
2019-01-23T00:10:24.826Z,23.30
2019-01-23T00:13:06.914Z,23.73
2019-01-23T00:15:47.973Z,23.50
2019-01-23T00:18:29.343Z,22.27
2019-01-23T00:20:58.229Z,23.57
2019-01-23T00:23:46.453Z,24.37
2019-01-23T00:26:55.295Z,24.37
2019-01-23T00:29:36.070Z,23.93
2019-01-23T00:32:17.204Z,25.53
2019-01-23T00:34:58.650Z,23.67
2019-01-23T00:37:39.590Z,24.70
2019-01-23T00:40:21.738Z,26.73
2019-01-23T00:43:03.024Z,24.53
2019-01-23T00:45:45.500Z,26.50
2019-01-23T00:48:26.578Z,24.67
2019-01-23T00:51:07.554Z,25.40
2019-01-23T00:53:48.198Z,26.10
2019-01-23T00:56:28.914Z,23.60
2019-01-23T00:59:10.372Z,24.83
2019-01-23T01:01:52.744Z,26.03
2019-01-23T01:04:33.290Z,25.00
2019-01-23T01:07:13.868Z,25.97
2019-01-23T01:09:54.899Z,23.27
2019-01-23T01:12:37.396Z,22.60
2019-01-23T01:15:20.816Z,23.07
2019-01-23T01:18:02.513Z,24.10
2019-01-23T01:20:43.685Z,23.63
2019-01-23T01:23:25.083Z,26.00
2019-01-23T01:26:05.888Z,25.27
2019-01-23T01:28:47.202Z,24.97
2019-01-23T01:31:28.082Z,25.07
2019-01-23T01:34:09.066Z,26.27
2019-01-23T01:36:51.698Z,26.43
2019-01-23T01:39:33.101Z,26.33
2019-01-23T01:42:15.928Z,27.67
2019-01-23T01:44:56.402Z,27.17
2019-01-23T01:47:36.956Z,26.87
2019-01-23T01:50:17.590Z,28.30
2019-01-23T01:52:58.400Z,26.80
2019-01-23T01:55:39.322Z,29.03
2019-01-23T01:58:19.944Z,26.80
2019-01-23T02:01:00.832Z,27.33
2019-01-23T02:03:41.627Z,28.60
2019-01-23T02:06:23.276Z,28.93
2019-01-23T02:09:04.765Z,29.57
2019-01-23T02:11:46.446Z,27.87
2019-01-23T02:14:27.958Z,27.30
2019-01-23T02:17:08.874Z,27.67
2019-01-23T02:19:50.214Z,28.90
2019-01-23T02:22:31.766Z,28.50
2019-01-23T02:25:12.514Z,31.13
2019-01-23T02:27:53.862Z,30.17
2019-01-23T02:30:34.882Z,31.50
2019-01-23T02:33:15.846Z,30.60
2019-01-23T02:35:58.874Z,31.37
2019-01-23T02:38:41.352Z,30.33
2019-01-23T02:41:22.345Z,33.03
2019-01-23T02:44:03.071Z,30.97
2019-01-23T02:46:44.284Z,31.73
2019-01-23T02:49:26.555Z,32.33
2019-01-23T02:52:08.134Z,29.93
2019-01-23T02:54:49.170Z,31.70
2019-01-23T02:57:30.289Z,30.23
2019-01-23T03:00:11.533Z,29.77
2019-01-23T03:02:53.954Z,31.60
2019-01-23T03:05:36.582Z,31.40
2019-01-23T03:08:18.856Z,29.27
2019-01-23T03:10:59.825Z,33.27
2019-01-23T03:13:41.515Z,31.17
2019-01-23T03:16:22.964Z,28.90
2019-01-23T03:19:04.872Z,31.97
2019-01-23T03:25:06.278Z,30.00
2019-01-23T03:30:57.959Z,31.57
2019-01-23T03:33:40.266Z,31.20
2019-01-23T03:39:42.226Z,33.17
2019-01-23T03:42:45.635Z,32.40
2019-01-23T03:45:26.693Z,32.53
2019-01-23T03:48:07.904Z,36.17
2019-01-23T03:53:53.964Z,32.10
2019-01-23T03:56:35.429Z,33.60
2019-01-23T03:59:17.311Z,34.57
2019-01-23T04:01:58.407Z,35.33
2019-01-23T04:04:39.803Z,35.80
2019-01-23T04:07:21.188Z,36.73
2019-01-23T04:10:02.477Z,35.53
2019-01-23T04:12:43.607Z,35.97
2019-01-23T04:15:24.642Z,36.03
2019-01-23T04:18:06.109Z,37.40
2019-01-23T04:23:31.389Z,36.63
2019-01-23T04:29:17.282Z,37.90
2019-01-23T04:32:04.812Z,36.37
2019-01-23T04:34:45.573Z,36.50
2019-01-23T04:37:26.599Z,38.23
2019-01-23T04:40:07.396Z,37.53
2019-01-23T04:42:48.028Z,37.73
2019-01-23T04:45:28.932Z,37.73
2019-01-23T04:48:10.769Z,35.40
2019-01-23T04:50:56.638Z,37.10
2019-01-23T04:53:39.556Z,39.13
2019-01-23T04:56:22.322Z,39.30
2019-01-23T05:01:50.052Z,38.10
2019-01-23T05:04:18.941Z,37.23
2019-01-23T05:07:07.101Z,39.37
2019-01-23T05:09:48.032Z,36.97
2019-01-23T05:12:28.974Z,36.97
2019-01-23T05:15:10.553Z,38.50
2019-01-23T05:17:52.131Z,38.13
2019-01-23T05:20:33.863Z,38.83
2019-01-23T05:23:16.039Z,36.73
2019-01-23T05:25:58.699Z,37.50
2019-01-23T05:28:27.567Z,35.93
2019-01-23T05:40:03.861Z,35.67
2019-01-23T05:42:45.252Z,36.47
2019-01-23T05:45:27.249Z,35.83
2019-01-23T05:48:08.227Z,35.33
2019-01-23T05:50:50.312Z,31.87
2019-01-23T05:53:31.142Z,36.53
2019-01-23T05:56:13.682Z,36.53
2019-01-23T05:58:54.680Z,36.37
2019-01-23T06:01:35.938Z,34.13
2019-01-23T06:04:17.304Z,36.47
2019-01-23T06:13:18.690Z,37.57
2019-01-23T06:16:00.496Z,37.43
2019-01-23T06:18:41.666Z,36.30
2019-01-23T06:21:24.181Z,36.60
2019-01-23T06:24:05.488Z,36.00
2019-01-23T06:29:51.528Z,35.83
2019-01-23T06:32:33.220Z,43.30
2019-01-23T06:35:13.823Z,41.70
2019-01-23T06:37:56.088Z,42.10
2019-01-23T06:40:38.084Z,42.83
2019-01-23T06:43:19.826Z,48.77
2019-01-23T06:46:01.959Z,48.40
2019-01-23T06:48:43.392Z,52.00
2019-01-23T06:51:24.178Z,51.77
2019-01-23T06:54:08.613Z,50.30
2019-01-23T06:56:55.009Z,50.00
2019-01-23T06:59:37.078Z,51.83
2019-01-23T07:05:08.935Z,49.30
2019-01-23T07:07:51.531Z,50.80
2019-01-23T07:10:33.973Z,49.50
2019-01-23T07:13:14.849Z,47.17
2019-01-23T07:15:57.603Z,48.00
2019-01-23T07:18:41.254Z,48.73
2019-01-23T07:21:10.195Z,45.17
2019-01-23T07:23:39.070Z,48.43
2019-01-23T07:26:08.004Z,51.60
2019-01-23T07:28:56.172Z,48.33
2019-01-23T07:31:36.822Z,49.83
2019-01-23T07:34:17.355Z,46.67
2019-01-23T07:36:58.380Z,50.77
2019-01-23T07:39:39.858Z,48.10
2019-01-23T07:42:21.293Z,50.03
2019-01-23T07:45:02.353Z,48.53
2019-01-23T07:47:44.223Z,49.63
2019-01-23T07:50:25.246Z,47.00
2019-01-23T07:53:06.485Z,46.93
2019-01-23T07:55:47.802Z,46.40
2019-01-23T07:58:30.218Z,48.87
2019-01-23T08:01:12.591Z,48.10
2019-01-23T08:03:53.467Z,49.10
2019-01-23T08:06:34.449Z,48.93
2019-01-23T08:09:18.800Z,46.97
2019-01-23T08:11:47.702Z,46.30
2019-01-23T08:14:35.896Z,48.23
2019-01-23T08:17:24.035Z,45.03
2019-01-23T08:20:05.363Z,43.33
2019-01-23T08:22:47.348Z,45.27
2019-01-23T08:25:27.956Z,43.63
2019-01-23T08:28:09.587Z,44.17
2019-01-23T08:30:50.442Z,41.17
2019-01-23T08:33:32.111Z,43.60
2019-01-23T08:36:14.434Z,42.50
2019-01-23T08:38:56.795Z,43.03
2019-01-23T08:44:42.928Z,39.63
2019-01-23T08:47:24.866Z,39.87
2019-01-23T08:50:06.429Z,40.40
2019-01-23T08:52:47.590Z,37.93
2019-01-23T08:55:29.014Z,41.53
2019-01-23T08:58:09.778Z,39.87
2019-01-23T09:00:45.570Z,41.50
2019-01-23T09:03:46.534Z,40.63
2019-01-23T09:06:15.587Z,40.03
2019-01-23T09:12:24.362Z,41.00
2019-01-23T09:15:06.720Z,41.10
2019-01-23T09:18:11.843Z,41.70
2019-01-23T09:20:39.410Z,37.80
2019-01-23T09:23:20.903Z,39.47
2019-01-23T09:26:04.050Z,38.67
2019-01-23T09:28:45.612Z,38.60
2019-01-23T09:31:26.342Z,39.63
2019-01-23T09:34:06.981Z,39.43
2019-01-23T09:36:48.819Z,41.10
2019-01-23T09:39:29.916Z,40.50
2019-01-23T09:42:37.445Z,41.17
2019-01-23T09:45:19.222Z,37.03
2019-01-23T09:47:59.990Z,40.30
2019-01-23T09:53:25.256Z,37.27
2019-01-23T09:56:06.482Z,36.60
2019-01-23T09:58:47.632Z,37.03
2019-01-23T10:01:28.242Z,35.73
2019-01-23T10:09:59.452Z,38.90
2019-01-23T10:12:40.678Z,36.23
2019-01-23T10:15:21.910Z,36.33
2019-01-23T10:18:02.757Z,36.67
2019-01-23T10:20:43.857Z,35.93
2019-01-23T10:23:25.778Z,37.10
2019-01-23T10:26:08.218Z,36.07
2019-01-23T10:28:50.331Z,36.37
2019-01-23T10:31:31.148Z,36.83
2019-01-23T10:34:13.449Z,36.63
2019-01-23T10:36:55.871Z,34.97
2019-01-23T10:39:36.568Z,36.60
2019-01-23T10:42:17.679Z,37.03
2019-01-23T10:44:58.383Z,38.43
2019-01-23T10:47:39.004Z,36.83
2019-01-23T10:53:33.544Z,36.57
2019-01-23T10:56:15.035Z,39.37
2019-01-23T10:58:56.176Z,35.30
2019-01-23T11:01:37.651Z,34.80
2019-01-23T11:04:18.935Z,34.50
2019-01-23T11:06:47.897Z,35.27
2019-01-23T11:09:36.076Z,35.97
2019-01-23T11:12:24.231Z,34.47
2019-01-23T11:15:04.900Z,35.47
2019-01-23T11:17:46.275Z,35.83
2019-01-23T11:20:26.815Z,34.63
2019-01-23T11:23:07.609Z,36.10
2019-01-23T11:25:48.377Z,36.07
2019-01-23T11:31:42.709Z,34.43
2019-01-23T11:34:23.836Z,34.33
2019-01-23T11:37:04.560Z,34.30
2019-01-23T11:39:45.312Z,36.27
2019-01-23T11:42:26.291Z,33.40
2019-01-23T11:45:08.951Z,33.83
2019-01-23T11:47:51.538Z,34.73
2019-01-23T11:50:32.781Z,36.20
2019-01-23T11:53:14.092Z,34.33
2019-01-23T11:55:54.686Z,34.33
2019-01-23T11:58:35.439Z,36.20
2019-01-23T12:01:16.285Z,33.23
2019-01-23T12:07:16.669Z,36.53
2019-01-23T12:10:01.402Z,35.70
2019-01-23T12:12:42.462Z,33.20
2019-01-23T12:15:23.471Z,34.13
2019-01-23T12:18:04.046Z,35.63
2019-01-23T12:20:45.529Z,35.77
2019-01-23T12:23:26.798Z,34.70
2019-01-23T12:29:14.614Z,34.07
2019-01-23T12:31:57.192Z,35.33
2019-01-23T12:34:39.182Z,35.13
2019-01-23T12:37:21.192Z,35.13
2019-01-23T12:40:01.845Z,35.77
2019-01-23T12:42:43.992Z,34.77
2019-01-23T12:45:25.042Z,34.60
2019-01-23T12:48:06.538Z,34.80
2019-01-23T12:53:53.896Z,34.77
2019-01-23T12:56:35.390Z,36.60
2019-01-23T12:59:36.647Z,34.83
2019-01-23T13:02:17.754Z,33.40
2019-01-23T13:04:46.716Z,35.73
2019-01-23T13:07:34.857Z,34.50
2019-01-23T13:10:17.112Z,36.13
2019-01-23T13:12:57.989Z,38.00
2019-01-23T13:15:38.811Z,37.57
2019-01-23T13:18:07.922Z,36.70
2019-01-23T13:20:56.511Z,37.57
2019-01-23T13:23:38.729Z,34.83
2019-01-23T13:26:07.697Z,37.23
2019-01-23T13:28:55.982Z,36.47
2019-01-23T13:31:38.862Z,37.60
2019-01-23T13:34:07.750Z,37.57
2019-01-23T13:37:16.893Z,34.77
2019-01-23T13:43:06.830Z,34.77
2019-01-23T13:48:58.448Z,34.43
2019-01-23T13:51:41.169Z,36.17
2019-01-23T13:54:22.131Z,35.40
2019-01-23T13:57:02.880Z,35.07
2019-01-23T13:59:44.218Z,35.90
2019-01-23T14:02:25.162Z,36.97
2019-01-23T14:05:07.511Z,32.43
2019-01-23T14:07:36.643Z,36.90
2019-01-23T14:10:26.482Z,36.43
2019-01-23T14:13:15.162Z,36.63
2019-01-23T14:15:58.282Z,38.47
2019-01-23T14:21:23.312Z,39.67
2019-01-23T14:24:04.041Z,39.63
2019-01-23T14:26:44.898Z,38.60
2019-01-23T14:29:27.352Z,38.30
2019-01-23T14:32:08.664Z,39.17
2019-01-23T14:34:50.902Z,37.27
2019-01-23T14:37:33.718Z,39.00
2019-01-23T14:40:14.819Z,37.50
2019-01-23T14:42:55.819Z,38.17
2019-01-23T14:45:36.360Z,38.63
2019-01-23T14:48:17.834Z,38.13
2019-01-23T14:50:59.246Z,36.73
2019-01-23T14:53:28.184Z,40.00
2019-01-23T14:56:16.333Z,41.80
2019-01-23T14:58:59.150Z,40.40
2019-01-23T15:01:28.122Z,40.80
2019-01-23T15:04:16.290Z,40.60
2019-01-23T15:06:59.169Z,37.27
2019-01-23T15:09:28.119Z,41.87
2019-01-23T15:12:16.287Z,40.53
2019-01-23T15:14:58.680Z,40.37
2019-01-23T15:17:40.044Z,40.93
2019-01-23T15:20:22.302Z,43.20
2019-01-23T15:23:02.872Z,41.33
2019-01-23T15:25:43.685Z,40.73
2019-01-23T15:28:24.412Z,40.90
2019-01-23T15:31:05.390Z,40.73
2019-01-23T15:33:46.436Z,39.33
2019-01-23T15:36:28.413Z,42.30
2019-01-23T15:39:09.507Z,40.67
2019-01-23T15:41:53.911Z,39.30
2019-01-23T15:44:35.170Z,41.53
2019-01-23T15:47:16.334Z,42.10
2019-01-23T15:49:57.104Z,39.63
2019-01-23T15:52:38.796Z,37.93
2019-01-23T15:55:47.584Z,40.67
2019-01-23T16:01:43.094Z,38.10
2019-01-23T16:07:35.383Z,38.30
2019-01-23T16:10:17.750Z,41.37
2019-01-23T16:13:00.124Z,38.37
2019-01-23T16:15:41.087Z,40.77
2019-01-23T16:18:21.792Z,41.93
2019-01-23T16:21:04.387Z,41.17
2019-01-23T16:26:53.749Z,45.83
2019-01-23T16:32:54.098Z,38.77
2019-01-23T16:35:38.779Z,42.23
2019-01-23T16:38:17.464Z,43.77
2019-01-23T16:40:58.045Z,42.03
2019-01-23T16:43:40.021Z,42.63
2019-01-23T16:46:23.822Z,40.40
2019-01-23T16:49:05.043Z,41.73
2019-01-23T16:51:51.367Z,44.23
2019-01-23T16:54:31.758Z,40.00
2019-01-23T16:57:12.665Z,39.97
2019-01-23T16:59:54.177Z,42.97
2019-01-23T17:02:38.807Z,41.17
2019-01-23T17:05:19.568Z,43.23
2019-01-23T17:08:00.603Z,43.77
2019-01-23T17:10:42.122Z,43.57
2019-01-23T17:13:23.787Z,43.67
2019-01-23T17:16:06.122Z,40.57
2019-01-23T17:21:52.852Z,48.67
2019-01-23T17:24:33.888Z,43.77
2019-01-23T17:27:15.413Z,46.33
2019-01-23T17:29:56.727Z,43.60
2019-01-23T17:32:37.466Z,43.90
2019-01-23T17:35:19.684Z,43.07
2019-01-23T17:38:00.508Z,45.37
2019-01-23T17:40:41.823Z,43.10
2019-01-23T17:43:23.413Z,43.50
2019-01-23T17:46:04.483Z,46.03
2019-01-23T17:48:45.128Z,46.03
2019-01-23T17:51:26.203Z,45.00
2019-01-23T17:54:08.899Z,45.70
2019-01-23T17:56:50.578Z,45.90
2019-01-23T18:02:35.434Z,42.17
2019-01-23T18:05:16.424Z,44.87
2019-01-23T18:07:57.821Z,45.10
2019-01-23T18:10:38.522Z,44.07
2019-01-23T18:13:19.871Z,45.90
2019-01-23T18:16:01.072Z,42.23
2019-01-23T18:21:47.273Z,47.33
2019-01-23T18:24:27.932Z,37.63
2019-01-23T18:27:08.814Z,44.73
2019-01-23T18:32:33.598Z,42.00
2019-01-23T18:35:14.876Z,44.60
2019-01-23T18:37:55.905Z,44.83
2019-01-23T18:40:36.916Z,47.57
2019-01-23T18:43:18.226Z,46.10
2019-01-23T18:45:59.132Z,46.87
2019-01-23T18:49:08.494Z,40.73
2019-01-23T18:52:15.904Z,41.80
2019-01-23T18:54:57.391Z,40.50
2019-01-23T18:57:38.414Z,41.97
2019-01-23T19:00:19.836Z,41.33
2019-01-23T19:03:06.916Z,42.07
2019-01-23T19:05:44.354Z,37.93
2019-01-23T19:08:25.736Z,40.90
2019-01-23T19:11:07.005Z,39.50
2019-01-23T19:13:48.914Z,37.23
2019-01-23T19:16:30.042Z,38.77
2019-01-23T19:18:58.915Z,40.27
2019-01-23T19:21:54.914Z,41.60
2019-01-23T19:24:19.108Z,37.10
2019-01-23T19:26:48.095Z,37.27
2019-01-23T19:29:55.544Z,39.17
2019-01-23T19:32:44.332Z,38.53
2019-01-23T19:35:25.715Z,38.53
2019-01-23T19:38:06.984Z,37.50
2019-01-23T19:40:47.682Z,37.00
2019-01-23T19:43:29.872Z,39.87
2019-01-23T19:45:58.969Z,37.43
2019-01-23T19:48:27.850Z,40.67
2019-01-23T19:51:35.325Z,39.50
2019-01-23T19:54:23.635Z,39.87
2019-01-23T19:57:05.533Z,38.83
2019-01-23T19:59:47.658Z,42.07
2019-01-23T20:02:29.080Z,40.73
2019-01-23T20:05:10.301Z,37.50
2019-01-23T20:07:39.184Z,36.80
2019-01-23T20:10:48.722Z,40.03
2019-01-23T20:13:36.938Z,38.10
2019-01-23T20:16:19.625Z,37.23
2019-01-23T20:19:02.119Z,39.00
2019-01-23T20:21:43.332Z,36.63
2019-01-23T20:24:24.861Z,39.97
2019-01-23T20:27:05.923Z,36.57
2019-01-23T20:29:47.559Z,38.17
2019-01-23T20:32:28.620Z,37.33
2019-01-23T20:35:10.256Z,36.73
2019-01-23T20:37:51.268Z,39.33
2019-01-23T20:43:16.380Z,37.07
2019-01-23T20:45:58.532Z,37.40
2019-01-23T20:48:39.232Z,37.37
2019-01-23T20:51:08.430Z,37.63
2019-01-23T20:53:56.638Z,37.93
2019-01-23T20:56:40.976Z,38.27
2019-01-23T20:59:22.372Z,35.23
2019-01-23T21:02:03.484Z,36.03
2019-01-23T21:04:48.388Z,33.83
2019-01-23T21:07:29.912Z,32.87
2019-01-23T21:09:58.908Z,34.50
2019-01-23T21:12:27.789Z,36.57
2019-01-23T21:15:35.238Z,34.13
2019-01-23T21:18:49.611Z,30.40
2019-01-23T21:21:37.802Z,32.43
2019-01-23T21:24:19.064Z,33.70
2019-01-23T21:26:48.004Z,31.67
2019-01-23T21:29:36.174Z,34.53
2019-01-23T21:32:44.683Z,33.13
2019-01-23T21:35:25.834Z,32.00
2019-01-23T21:38:06.992Z,33.33
2019-01-23T21:40:47.939Z,31.10
2019-01-23T21:43:29.234Z,31.23
2019-01-23T21:46:10.334Z,34.60
2019-01-23T21:48:39.224Z,33.53
2019-01-23T21:51:27.488Z,38.73
2019-01-23T21:54:08.293Z,33.37
2019-01-23T21:56:49.514Z,34.50
2019-01-23T21:59:30.552Z,38.53
2019-01-23T22:01:59.472Z,40.80
2019-01-23T22:04:28.368Z,35.77
2019-01-23T22:07:17.835Z,37.43
2019-01-23T22:12:48.380Z,36.17
2019-01-23T22:21:24.494Z,36.77
2019-01-23T22:27:26.470Z,37.17
2019-01-23T22:30:07.870Z,39.23
2019-01-23T22:32:50.522Z,38.07
2019-01-23T22:35:31.232Z,33.43
2019-01-23T22:38:12.089Z,35.50
2019-01-23T22:40:53.393Z,35.00
2019-01-23T22:46:08.350Z,36.23
2019-01-23T22:48:56.476Z,38.67
2019-01-23T22:51:44.686Z,34.13
2019-01-23T22:54:26.069Z,33.20
2019-01-23T22:57:07.572Z,34.50
2019-01-23T22:59:36.453Z,36.40
2019-01-23T23:02:24.642Z,40.37
2019-01-23T23:05:08.889Z,38.87
2019-01-23T23:07:49.982Z,37.40
2019-01-23T23:10:19.098Z,38.23
2019-01-23T23:12:47.966Z,39.20
2019-01-23T23:15:36.287Z,35.67
2019-01-23T23:18:24.437Z,32.77
2019-01-23T23:21:05.494Z,37.67
2019-01-23T23:23:46.792Z,42.17
2019-01-23T23:26:28.812Z,38.97
2019-01-23T23:29:10.442Z,33.33
2019-01-23T23:31:39.533Z,41.23
2019-01-23T23:34:28.051Z,39.23
2019-01-23T23:37:16.532Z,39.47
2019-01-23T23:39:58.052Z,38.90
2019-01-23T23:42:39.952Z,36.93
2019-01-23T23:45:22.932Z,41.03
2019-01-23T23:48:03.779Z,39.40
2019-01-23T23:50:45.291Z,36.77
2019-01-23T23:53:45.584Z,35.13
2019-01-23T23:56:26.577Z,36.57
2019-01-23T23:59:07.549Z,38.67
